createdAt,value
2019-01-04T00:01:29.022Z,81.22
2019-01-04T00:04:33.756Z,81.59
2019-01-04T00:07:38.190Z,82.02
2019-01-04T00:10:42.633Z,81.99
2019-01-04T00:13:47.326Z,82.61
2019-01-04T00:16:51.762Z,82.63
2019-01-04T00:19:56.207Z,82.59
2019-01-04T00:23:00.640Z,82.20
2019-01-04T00:26:05.150Z,82.92
2019-01-04T00:29:09.859Z,82.98
2019-01-04T00:32:14.297Z,82.42
2019-01-04T00:35:19.017Z,82.66
2019-01-04T00:38:23.856Z,83.42
2019-01-04T00:41:28.295Z,83.25
2019-01-04T00:44:32.998Z,83.33
2019-01-04T00:47:37.430Z,83.38
2019-01-04T00:50:42.257Z,83.43
2019-01-04T00:53:46.700Z,83.36
2019-01-04T00:57:10.778Z,83.07
2019-01-04T01:00:44.164Z,83.12
2019-01-04T01:04:32.265Z,83.50
2019-01-04T01:08:31.935Z,83.36
2019-01-04T01:12:07.001Z,82.89
2019-01-04T01:15:48.160Z,83.36
2019-01-04T01:19:36.450Z,83.97
2019-01-04T01:23:06.845Z,84.34
2019-01-04T01:26:33.080Z,83.93
2019-01-04T01:30:21.150Z,83.94
2019-01-04T01:33:54.019Z,83.67
2019-01-04T01:37:36.419Z,84.06
2019-01-04T01:41:31.510Z,84.49
2019-01-04T01:44:52.421Z,83.74
2019-01-04T01:47:57.092Z,84.04
2019-01-04T01:51:17.903Z,84.23
2019-01-04T01:54:22.340Z,84.07
2019-01-04T01:57:27.059Z,84.06
2019-01-04T02:00:31.504Z,83.89
2019-01-04T02:03:36.197Z,83.62
2019-01-04T02:06:40.929Z,83.36
2019-01-04T02:09:45.363Z,83.30
2019-01-04T02:12:49.814Z,83.67
2019-01-04T02:15:54.522Z,83.58
2019-01-04T02:18:58.959Z,83.72
2019-01-04T02:22:03.403Z,83.41
2019-01-04T02:25:07.931Z,83.30
2019-01-04T02:28:12.365Z,83.54
2019-01-04T02:31:16.817Z,83.22
2019-01-04T02:34:21.258Z,83.18
2019-01-04T02:37:25.699Z,82.30
2019-01-04T02:40:30.143Z,82.59
2019-01-04T02:43:34.829Z,83.16
2019-01-04T02:46:39.275Z,82.49
2019-01-04T02:49:43.720Z,82.86
2019-01-04T02:52:48.162Z,82.89
2019-01-04T02:55:52.626Z,82.98
2019-01-04T02:58:57.062Z,82.56
2019-01-04T03:02:01.813Z,83.11
2019-01-04T03:05:06.874Z,83.43
2019-01-04T03:08:11.552Z,83.49
2019-01-04T03:11:15.998Z,82.87
2019-01-04T03:14:20.436Z,83.04
2019-01-04T03:17:24.879Z,83.30
2019-01-04T03:20:29.332Z,83.32
2019-01-04T03:23:33.771Z,83.31
2019-01-04T03:26:38.509Z,83.75
2019-01-04T03:29:42.936Z,83.82
2019-01-04T03:32:47.385Z,83.86
2019-01-04T03:35:52.109Z,83.60
2019-01-04T03:38:56.525Z,83.84
2019-01-04T03:42:01.245Z,84.17
2019-01-04T03:45:07.120Z,84.39
2019-01-04T03:48:11.817Z,84.56
2019-01-04T03:51:16.255Z,84.02
2019-01-04T03:54:20.698Z,84.15
2019-01-04T03:57:25.397Z,83.92
2019-01-04T04:00:29.844Z,83.53
2019-01-04T04:03:34.282Z,83.23
2019-01-04T04:06:38.719Z,83.55
2019-01-04T04:09:43.164Z,83.64
2019-01-04T04:12:47.606Z,83.25
2019-01-04T04:15:52.044Z,83.12
2019-01-04T04:18:56.499Z,82.07
2019-01-04T04:22:00.930Z,82.40
2019-01-04T04:25:05.719Z,82.92
2019-01-04T04:28:10.165Z,82.79
2019-01-04T04:31:14.604Z,82.52
2019-01-04T04:34:19.057Z,82.20
2019-01-04T04:37:23.823Z,82.28
2019-01-04T04:40:28.265Z,82.01
2019-01-04T04:43:32.708Z,82.25
2019-01-04T04:46:37.150Z,81.90
2019-01-04T04:49:41.597Z,81.75
2019-01-04T04:52:46.050Z,82.11
2019-01-04T04:55:50.788Z,81.75
2019-01-04T04:58:55.224Z,81.42
2019-01-04T05:01:59.930Z,81.70
2019-01-04T05:05:04.377Z,81.53
2019-01-04T05:08:08.834Z,81.56
2019-01-04T05:11:13.260Z,82.13
2019-01-04T05:14:17.701Z,82.10
2019-01-04T05:17:22.456Z,82.38
2019-01-04T05:20:27.199Z,82.83
2019-01-04T05:23:31.680Z,83.68
2019-01-04T05:26:36.445Z,83.65
2019-01-04T05:29:41.182Z,83.28
2019-01-04T05:32:45.615Z,83.45
2019-01-04T05:35:50.054Z,83.80
2019-01-04T05:38:54.755Z,83.84
2019-01-04T05:41:59.195Z,84.24
2019-01-04T05:45:04.108Z,84.27
2019-01-04T05:48:08.546Z,84.28
2019-01-04T05:51:13.262Z,84.02
2019-01-04T05:54:17.703Z,83.78
2019-01-04T05:57:22.134Z,83.95
2019-01-04T06:00:26.588Z,84.00
2019-01-04T06:03:31.023Z,83.42
2019-01-04T06:06:35.462Z,83.04
2019-01-04T06:09:39.915Z,82.73
2019-01-04T06:12:44.344Z,82.72
2019-01-04T06:15:49.167Z,82.68
2019-01-04T06:18:53.602Z,82.31
2019-01-04T06:21:58.050Z,81.42
2019-01-04T06:25:02.497Z,81.40
2019-01-04T06:28:07.269Z,81.54
2019-01-04T06:31:11.720Z,81.87
2019-01-04T06:34:16.425Z,81.88
2019-01-04T06:37:20.865Z,81.63
2019-01-04T06:40:25.579Z,82.03
2019-01-04T06:43:30.335Z,82.48
2019-01-04T06:46:34.796Z,82.97
2019-01-04T06:49:39.206Z,83.16
2019-01-04T06:52:43.894Z,83.35
2019-01-04T06:55:52.836Z,82.85
2019-01-04T06:58:57.241Z,82.37
2019-01-04T07:02:01.984Z,82.64
2019-01-04T07:05:07.840Z,82.78
2019-01-04T07:08:12.555Z,82.10
2019-01-04T07:11:17.008Z,82.91
2019-01-04T07:14:21.454Z,82.87
2019-01-04T07:17:25.902Z,83.04
2019-01-04T07:20:30.346Z,82.45
2019-01-04T07:23:34.780Z,82.75
2019-01-04T07:26:39.614Z,82.50
2019-01-04T07:29:44.049Z,82.02
2019-01-04T07:32:48.495Z,81.93
2019-01-04T07:35:53.186Z,82.26
2019-01-04T07:38:57.620Z,81.73
2019-01-04T07:42:02.075Z,81.70
2019-01-04T07:45:09.417Z,82.47
2019-01-04T07:48:13.871Z,82.75
2019-01-04T07:51:18.581Z,82.72
2019-01-04T07:54:23.026Z,83.48
2019-01-04T07:57:27.738Z,83.05
2019-01-04T08:00:32.179Z,82.05
2019-01-04T08:03:36.640Z,81.56
2019-01-04T08:06:41.424Z,81.09
2019-01-04T08:09:45.863Z,81.02
2019-01-04T08:12:50.301Z,81.32
2019-01-04T08:15:55.000Z,81.73
2019-01-04T08:18:59.446Z,81.18
2019-01-04T08:22:03.895Z,81.43
2019-01-04T08:25:09.272Z,80.81
2019-01-04T08:28:13.719Z,80.52
2019-01-04T08:31:18.158Z,79.74
2019-01-04T08:34:22.602Z,79.06
2019-01-04T08:37:27.392Z,79.69
2019-01-04T08:40:32.123Z,79.94
2019-01-04T08:43:36.955Z,79.34
2019-01-04T08:46:41.896Z,78.73
2019-01-04T08:49:46.626Z,78.50
2019-01-04T08:52:51.069Z,78.99
2019-01-04T08:55:55.505Z,79.35
2019-01-04T08:58:59.948Z,78.96
2019-01-04T09:02:04.728Z,78.89
2019-01-04T09:05:09.163Z,79.27
2019-01-04T09:08:13.986Z,78.08
2019-01-04T09:11:18.421Z,78.68
2019-01-04T09:14:23.145Z,78.42
2019-01-04T09:17:28.080Z,78.77
2019-01-04T09:20:32.906Z,78.63
2019-01-04T09:23:37.645Z,78.50
2019-01-04T09:26:42.078Z,77.76
2019-01-04T09:29:46.523Z,77.89
2019-01-04T09:32:50.970Z,76.79
2019-01-04T09:35:55.404Z,75.76
2019-01-04T09:39:03.275Z,75.77
2019-01-04T09:42:06.639Z,74.65
2019-01-04T09:45:11.157Z,75.00
2019-01-04T09:48:15.891Z,74.81
2019-01-04T09:51:20.628Z,74.86
2019-01-04T09:54:25.356Z,74.76
2019-01-04T09:57:30.105Z,74.29
2019-01-04T10:00:34.818Z,75.66
2019-01-04T10:03:39.272Z,75.89
2019-01-04T10:06:43.704Z,75.56
2019-01-04T10:09:48.151Z,74.99
2019-01-04T10:12:52.609Z,75.16
2019-01-04T10:15:57.038Z,75.66
2019-01-04T10:19:01.767Z,75.47
2019-01-04T10:22:06.203Z,74.06
2019-01-04T10:25:11.531Z,73.77
2019-01-04T10:28:15.979Z,73.57
2019-01-04T10:31:20.410Z,74.29
2019-01-04T10:34:24.853Z,74.47
2019-01-04T10:37:29.538Z,74.91
2019-01-04T10:40:33.980Z,74.82
2019-01-04T10:43:38.686Z,74.50
2019-01-04T10:46:43.125Z,74.90
2019-01-04T10:49:47.560Z,75.01
2019-01-04T10:52:52.272Z,76.05
2019-01-04T10:55:57.002Z,75.13
2019-01-04T10:59:01.450Z,75.67
2019-01-04T11:02:05.874Z,75.75
2019-01-04T11:05:10.329Z,76.82
2019-01-04T11:08:15.108Z,75.62
2019-01-04T11:11:19.831Z,76.27
2019-01-04T11:14:24.283Z,77.07
2019-01-04T11:17:28.719Z,76.69
2019-01-04T11:20:39.683Z,76.91
2019-01-04T11:24:12.551Z,76.34
2019-01-04T11:27:17.380Z,77.55
2019-01-04T11:30:26.830Z,77.29
2019-01-04T11:33:32.820Z,76.78
2019-01-04T11:36:56.100Z,77.51
2019-01-04T11:40:35.190Z,76.79
2019-01-04T11:43:47.200Z,77.05
2019-01-04T11:47:32.881Z,77.34
2019-01-04T11:50:56.931Z,76.49
2019-01-04T11:54:02.101Z,77.60
2019-01-04T11:57:06.543Z,77.69
2019-01-04T12:00:12.329Z,77.75
2019-01-04T12:03:16.765Z,75.35
2019-01-04T12:06:21.542Z,75.43
2019-01-04T12:09:25.978Z,75.74
2019-01-04T12:12:30.419Z,75.18
2019-01-04T12:15:34.868Z,75.94
2019-01-04T12:18:39.300Z,75.46
2019-01-04T12:21:44.063Z,75.72
2019-01-04T12:24:48.502Z,74.93
2019-01-04T12:27:52.942Z,75.01
2019-01-04T12:30:57.395Z,75.25
2019-01-04T12:34:01.836Z,75.05
2019-01-04T12:37:06.277Z,75.97
2019-01-04T12:40:11.015Z,73.75
2019-01-04T12:43:15.460Z,73.74
2019-01-04T12:46:19.972Z,74.40
2019-01-04T12:49:24.404Z,75.59
2019-01-04T12:52:29.122Z,75.20
2019-01-04T12:55:33.557Z,75.02
2019-01-04T12:58:38.007Z,75.30
2019-01-04T13:01:42.449Z,73.69
2019-01-04T13:04:46.885Z,73.89
2019-01-04T13:07:51.323Z,73.97
2019-01-04T13:10:55.757Z,74.59
2019-01-04T13:14:00.279Z,75.72
2019-01-04T13:17:04.722Z,74.80
2019-01-04T13:20:09.445Z,73.77
2019-01-04T13:23:13.884Z,73.04
2019-01-04T13:26:18.601Z,73.06
2019-01-04T13:29:23.330Z,74.46
2019-01-04T13:32:28.059Z,74.32
2019-01-04T13:35:32.503Z,73.08
2019-01-04T13:38:36.948Z,74.07
2019-01-04T13:41:41.390Z,74.80
2019-01-04T13:44:45.823Z,73.73
2019-01-04T13:47:50.582Z,73.95
2019-01-04T13:50:55.318Z,73.44
2019-01-04T13:53:59.759Z,73.61
2019-01-04T13:57:05.298Z,73.06
2019-01-04T14:00:11.047Z,73.88
2019-01-04T14:03:15.482Z,74.32
2019-01-04T14:06:19.909Z,73.86
2019-01-04T14:09:24.349Z,73.25
2019-01-04T14:12:28.856Z,72.72
2019-01-04T14:15:33.290Z,73.05
2019-01-04T14:18:37.996Z,73.50
2019-01-04T14:21:42.424Z,73.26
2019-01-04T14:24:46.861Z,72.17
2019-01-04T14:27:51.569Z,72.50
2019-01-04T14:30:56.565Z,73.49
2019-01-04T14:34:01.443Z,72.18
2019-01-04T14:37:06.175Z,72.74
2019-01-04T14:40:11.851Z,73.81
2019-01-04T14:43:16.562Z,72.83
2019-01-04T14:46:20.992Z,73.03
2019-01-04T14:49:26.711Z,72.52
2019-01-04T14:52:31.138Z,73.03
2019-01-04T14:55:35.578Z,73.15
2019-01-04T14:58:40.309Z,74.11
2019-01-04T15:01:44.749Z,73.23
2019-01-04T15:04:49.519Z,73.97
2019-01-04T15:07:53.895Z,74.58
2019-01-04T15:10:58.341Z,73.81
2019-01-04T15:14:02.776Z,72.79
2019-01-04T15:17:07.468Z,72.78
2019-01-04T15:20:12.198Z,73.66
2019-01-04T15:23:16.627Z,73.62
2019-01-04T15:26:21.355Z,73.30
2019-01-04T15:29:26.088Z,73.99
2019-01-04T15:32:30.821Z,73.94
2019-01-04T15:35:35.258Z,74.54
2019-01-04T15:38:39.686Z,74.33
2019-01-04T15:41:44.131Z,75.45
2019-01-04T15:44:48.570Z,75.60
2019-01-04T15:47:53.005Z,75.47
2019-01-04T15:50:57.771Z,75.53
2019-01-04T15:54:02.496Z,75.55
2019-01-04T15:57:07.119Z,75.70
2019-01-04T16:00:12.991Z,76.36
2019-01-04T16:03:17.420Z,75.94
2019-01-04T16:06:21.859Z,77.41
2019-01-04T16:09:26.560Z,77.58
2019-01-04T16:12:31.293Z,77.77
2019-01-04T16:15:36.022Z,77.62
2019-01-04T16:18:40.754Z,77.61
2019-01-04T16:21:45.247Z,77.66
2019-01-04T16:24:49.688Z,77.46
2019-01-04T16:27:54.436Z,77.98
2019-01-04T16:30:58.873Z,77.39
2019-01-04T16:34:03.586Z,77.28
2019-01-04T16:37:08.024Z,76.34
2019-01-04T16:40:12.535Z,76.53
2019-01-04T16:43:16.969Z,76.15
2019-01-04T16:46:21.787Z,75.76
2019-01-04T16:49:27.989Z,76.30
2019-01-04T16:52:32.430Z,76.27
2019-01-04T16:55:36.866Z,76.80
2019-01-04T16:58:41.639Z,76.75
2019-01-04T17:01:46.083Z,76.95
2019-01-04T17:04:50.516Z,76.28
2019-01-04T17:07:55.215Z,76.66
2019-01-04T17:10:59.948Z,77.02
2019-01-04T17:14:04.384Z,76.41
2019-01-04T17:17:08.830Z,76.49
2019-01-04T17:20:13.625Z,76.11
2019-01-04T17:23:18.062Z,76.46
2019-01-04T17:26:22.785Z,75.55
2019-01-04T17:29:27.224Z,75.72
2019-01-04T17:32:31.934Z,74.67
2019-01-04T17:35:36.874Z,75.29
2019-01-04T17:38:41.319Z,74.66
2019-01-04T17:41:45.763Z,74.19
2019-01-04T17:44:50.196Z,74.20
2019-01-04T17:47:54.649Z,73.39
2019-01-04T17:50:59.124Z,74.01
2019-01-04T17:54:03.521Z,74.86
2019-01-04T17:57:07.960Z,75.10
2019-01-04T18:00:12.962Z,74.59
2019-01-04T18:03:17.409Z,74.17
2019-01-04T18:06:21.860Z,74.16
2019-01-04T18:09:26.292Z,74.17
2019-01-04T18:12:30.735Z,74.10
2019-01-04T18:15:35.181Z,74.19
2019-01-04T18:18:39.616Z,74.64
2019-01-04T18:21:44.053Z,75.59
2019-01-04T18:24:48.774Z,75.77
2019-01-04T18:27:53.221Z,75.88
2019-01-04T18:30:57.646Z,75.73
2019-01-04T18:34:02.147Z,75.06
2019-01-04T18:37:06.587Z,75.00
2019-01-04T18:40:11.457Z,74.43
2019-01-04T18:43:16.238Z,75.09
2019-01-04T18:46:20.684Z,75.26
2019-01-04T18:49:25.161Z,74.79
2019-01-04T18:52:29.583Z,74.94
2019-01-04T18:55:34.020Z,74.57
2019-01-04T18:58:38.771Z,75.00
2019-01-04T19:01:43.203Z,74.05
2019-01-04T19:04:47.635Z,74.05
2019-01-04T19:07:52.343Z,73.52
2019-01-04T19:10:57.082Z,73.62
2019-01-04T19:14:01.808Z,74.43
2019-01-04T19:17:06.247Z,74.57
2019-01-04T19:20:10.963Z,74.33
2019-01-04T19:23:15.695Z,74.50
2019-01-04T19:26:20.147Z,74.47
2019-01-04T19:29:24.843Z,74.83
2019-01-04T19:32:29.578Z,74.59
2019-01-04T19:35:34.010Z,74.13
2019-01-04T19:38:38.453Z,74.21
2019-01-04T19:41:42.889Z,74.50
2019-01-04T19:44:47.326Z,74.42
2019-01-04T19:47:52.105Z,74.78
2019-01-04T19:50:56.846Z,75.16
2019-01-04T19:54:01.565Z,74.81
2019-01-04T19:57:06.292Z,75.38
2019-01-04T20:00:11.218Z,75.16
2019-01-04T20:03:15.976Z,75.25
2019-01-04T20:06:48.218Z,75.18
2019-01-04T20:10:19.965Z,75.37
2019-01-04T20:14:01.549Z,76.15
2019-01-04T20:17:07.619Z,76.65
2019-01-04T20:20:24.705Z,77.03
2019-01-04T20:23:43.131Z,77.12
2019-01-04T20:26:49.208Z,77.43
2019-01-04T20:30:11.549Z,77.44
2019-01-04T20:33:20.887Z,77.36
2019-01-04T20:36:29.621Z,77.09
2019-01-04T20:39:41.737Z,77.02
2019-01-04T20:42:57.091Z,76.81
2019-01-04T20:46:09.296Z,77.09
2019-01-04T20:49:31.385Z,78.38
2019-01-04T20:52:35.586Z,78.26
2019-01-04T20:55:57.736Z,78.07
2019-01-04T20:59:07.022Z,78.35
2019-01-04T21:02:29.107Z,78.87
2019-01-04T21:05:45.063Z,78.65
2019-01-04T21:09:06.178Z,78.76
2019-01-04T21:12:21.451Z,78.85
2019-01-04T21:15:28.107Z,79.09
2019-01-04T21:18:50.569Z,79.99
2019-01-04T21:22:03.565Z,80.07
2019-01-04T21:25:13.446Z,80.30
2019-01-04T21:28:20.633Z,81.18
2019-01-04T21:34:49.977Z,81.27
2019-01-04T21:38:04.932Z,81.78
2019-01-04T21:41:17.928Z,81.94
2019-01-04T21:44:24.005Z,81.60
2019-01-04T21:47:45.336Z,81.47
2019-01-04T21:51:07.493Z,81.55
2019-01-04T21:54:16.265Z,80.93
2019-01-04T21:57:38.956Z,81.18
2019-01-04T22:00:45.035Z,81.40
2019-01-04T22:03:51.106Z,80.89
2019-01-04T22:07:04.433Z,81.30
2019-01-04T22:10:13.409Z,80.86
2019-01-04T22:13:25.746Z,80.62
2019-01-04T22:16:43.816Z,80.64
2019-01-04T22:19:50.162Z,80.05
2019-01-04T22:22:56.531Z,80.39
2019-01-04T22:26:18.899Z,79.70
2019-01-04T22:29:33.811Z,79.71
2019-01-04T22:32:39.892Z,79.49
2019-01-04T22:35:48.955Z,79.65
2019-01-04T22:38:57.756Z,79.35
2019-01-04T22:42:20.619Z,79.31
2019-01-04T22:45:44.974Z,79.15
2019-01-04T22:49:06.326Z,79.22
2019-01-04T22:52:28.718Z,80.04
2019-01-04T22:55:40.686Z,80.18
2019-01-04T22:58:45.214Z,81.11
2019-01-04T23:01:53.944Z,81.51
2019-01-04T23:05:14.947Z,81.30
2019-01-04T23:08:26.749Z,80.63
2019-01-04T23:11:32.827Z,80.57
2019-01-04T23:14:47.970Z,80.91
2019-01-04T23:17:56.743Z,81.26
2019-01-04T23:21:46.900Z,80.84
2019-01-04T23:24:53.790Z,81.44
2019-01-04T23:28:17.617Z,81.57
2019-01-04T23:31:29.604Z,81.43
2019-01-04T23:34:44.779Z,81.03
2019-01-04T23:37:59.909Z,81.05
2019-01-04T23:41:17.917Z,80.88
2019-01-04T23:44:24.319Z,80.89
2019-01-04T23:47:33.452Z,80.51
2019-01-04T23:50:39.659Z,80.60
2019-01-04T23:53:57.952Z,80.22
2019-01-04T23:57:20.337Z,79.94
